Snow/Ice From: 16-12-2017 16:00 Until: 17-12-2017 16:00 warning for: Snow/Ice Level: Yellow info button

Although rather usual in this region, locally or potentially dangerous phenomena are expected. (such as local winds, summer thunderstorms, rising streams or high waves) Be aware and pay attention to the latest weather updates, especially if you carry out activities exposed to weather or close to a stream or shoreline. 


Meteo18 Weather Cam more information Meteo18 Weather Cam


Thunder radar more information blitzortung!


warning for Snow/Ice more information rain snow radar


Visit our other weather sites:

Template documentation
and downloads

And another site



Weather Underground History page Text

Daily Summary for February 11, 2017 Units:  English    Metric   Both
« Previous Day
Next Day »
Daily Weekly Monthly Yearly Custom
  High: Low: Average:
Temperature: 37 °F 28.8 °F 32.4 °F
Dew Point: 32.5 °F 26.1 °F 28.6 °F
Humidity: 93 % 74 % 86 %
Wind Speed: 11 mph 0 mph 2.5 mph
Wind Gust: 13 mph - -
Wind:- - South
Pressure: 30.1 in 30.1 in -
Precipitation: 0 in    
Historical Graphs
 
 
Tabular Data for February 11, 2017
Time Temperature Dew Point Pressure Wind Wind Speed Wind Gust Humidity Rainfall Rate (Hourly)
00:02 34.9 °F 32.5 °F 30.1 in NNW 4 mph 9 mph 91 % 0 in
00:12 34.7 °F 32.4 °F 30.1 in North 3 mph 9 mph 91 % 0 in
00:17 34.5 °F 32.2 °F 30.1 in NW 3 mph 9 mph 91 % 0 in
00:22 34.5 °F 32.2 °F 30.1 in NNE 3 mph 9 mph 91 % 0 in
00:27 34.5 °F 32.2 °F 30.1 in NNW 5 mph 9 mph 91 % 0 in
00:32 34.5 °F 32.2 °F 30.1 in North 6 mph 7 mph 91 % 0 in
00:37 34.3 °F 32 °F 30.1 in North 5 mph 8 mph 91 % 0 in
00:42 34.5 °F 32.2 °F 30.1 in North 7 mph 9 mph 91 % 0 in
00:47 34.5 °F 32.2 °F 30.1 in NE 2 mph 10 mph 91 % 0 in
00:57 34.3 °F 32 °F 30.1 in NW 5 mph 12 mph 91 % 0 in
01:02 34.3 °F 32 °F 30.1 in North 6 mph 12 mph 91 % 0 in
01:07 34.3 °F 32 °F 30.1 in NNE 4 mph 12 mph 91 % 0 in
01:12 34.3 °F 32 °F 30.1 in NNW 7 mph 11 mph 91 % 0 in
01:17 34.2 °F 32 °F 30.1 in NNW 4 mph 10 mph 92 % 0 in
01:22 34.2 °F 32 °F 30.1 in NNE 8 mph 10 mph 92 % 0 in
01:27 34 °F 31.8 °F 30.1 in NNE 4 mph 11 mph 92 % 0 in
01:32 34 °F 31.8 °F 30.1 in North 4 mph 11 mph 92 % 0 in
01:42 34 °F 31.8 °F 30.1 in North 1 mph 10 mph 92 % 0 in
01:47 34 °F 31.8 °F 30.1 in NNE 3 mph 9 mph 92 % 0 in
01:52 34 °F 31.8 °F 30.1 in NW 5 mph 10 mph 92 % 0 in
01:57 33.8 °F 31.6 °F 30.1 in NNW 3 mph 10 mph 92 % 0 in
02:02 33.8 °F 31.6 °F 30.1 in NNW 2 mph 10 mph 92 % 0 in
02:07 33.8 °F 31.6 °F 30.1 in NNW 3 mph 9 mph 92 % 0 in
02:17 33.6 °F 31.5 °F 30.1 in North 10 mph 10 mph 92 % 0 in
02:22 33.6 °F 31.5 °F 30.1 in NW 3 mph 11 mph 92 % 0 in
02:32 33.6 °F 31.5 °F 30.1 in NNW 2 mph 11 mph 92 % 0 in
02:42 33.6 °F 31.5 °F 30.1 in NNE 6 mph 8 mph 92 % 0 in
02:47 33.6 °F 31.5 °F 30.1 in North 4 mph 9 mph 92 % 0 in
02:57 33.4 °F 31.3 °F 30.1 in North 7 mph 12 mph 92 % 0 in
03:02 33.4 °F 31.3 °F 30.1 in NNE 2 mph 12 mph 92 % 0 in
03:12 33.3 °F 31.1 °F 30.1 in NNW 5 mph 9 mph 92 % 0 in
03:17 33.3 °F 31.1 °F 30.1 in NNW 2 mph 6 mph 92 % 0 in
03:22 33.3 °F 31.1 °F 30.1 in NNW 1 mph 6 mph 92 % 0 in
03:27 33.3 °F 31.1 °F 30.1 in Calm   6 mph 92 % 0 in
03:32 33.1 °F 31.1 °F 30.1 in ENE 1 mph 6 mph 92 % 0 in
03:37 33.1 °F 31.1 °F 30.1 in NNW 1 mph 8 mph 92 % 0 in
03:42 33.1 °F 31.1 °F 30.1 in NNW 1 mph 8 mph 92 % 0 in
03:47 32.9 °F 30.9 °F 30.1 in NNW 4 mph 7 mph 92 % 0 in
03:52 32.9 °F 30.9 °F 30.1 in NNE 7 mph 8 mph 92 % 0 in
03:57 32.7 °F 30.7 °F 30.1 in North 1 mph 10 mph 92 % 0 in
04:02 32.7 °F 30.7 °F 30.1 in NNW 4 mph 10 mph 92 % 0 in
04:12 32.7 °F 30.9 °F 30.1 in North 4 mph 7 mph 93 % 0 in
04:17 32.7 °F 30.9 °F 30.1 in NNW 1 mph 7 mph 93 % 0 in
04:22 32.5 °F 30.7 °F 30.1 in North 4 mph 6 mph 93 % 0 in
04:27 32.4 °F 30.6 °F 30.1 in NNW 3 mph 6 mph 93 % 0 in
04:32 32.2 °F 30.4 °F 30.1 in NNW 3 mph 6 mph 93 % 0 in
04:37 32.2 °F 30.4 °F 30.1 in North 2 mph 7 mph 93 % 0 in
04:42 32 °F 30.2 °F 30.1 in NNW 3 mph 7 mph 93 % 0 in
04:47 32 °F 30.2 °F 30.1 in North 4 mph 7 mph 93 % 0 in
04:52 32 °F 30.2 °F 30.1 in NNW 2 mph 7 mph 93 % 0 in
04:57 32 °F 30.2 °F 30.1 in NNE 4 mph 7 mph 93 % 0 in
05:02 32 °F 30.2 °F 30.1 in NNW 4 mph 7 mph 93 % 0 in
05:07 32.2 °F 30.4 °F 30.1 in NNW 1 mph 6 mph 93 % 0 in
05:12 32.2 °F 30.4 °F 30.1 in NNW 2 mph 5 mph 93 % 0 in
05:17 32 °F 30.2 °F 30.1 in NNW 3 mph 5 mph 93 % 0 in
05:22 31.8 °F 30 °F 30.1 in NNE 2 mph 6 mph 93 % 0 in
05:32 31.8 °F 30 °F 30.1 in NNW 2 mph 6 mph 93 % 0 in
05:37 31.8 °F 30 °F 30.1 in NNW 3 mph 6 mph 93 % 0 in
05:47 32 °F 30.2 °F 30.1 in NNW 2 mph 6 mph 93 % 0 in
05:52 32 °F 30.2 °F 30.1 in WNW 3 mph 6 mph 93 % 0 in
05:57 31.8 °F 30 °F 30.1 in NW 2 mph 6 mph 93 % 0 in
06:02 31.8 °F 30 °F 30.1 in NNW 5 mph 6 mph 93 % 0 in
06:12 31.3 °F 29.3 °F 30.1 in North 3 mph 8 mph 92 % 0 in
06:17 30.9 °F 28.9 °F 30.1 in North 9 mph 10 mph 92 % 0 in
06:22 30.7 °F 28.4 °F 30.1 in NW 4 mph 10 mph 91 % 0 in
06:27 30.6 °F 27.7 °F 30.1 in North 8 mph 10 mph 89 % 0 in
06:32 30.6 °F 27.7 °F 30.1 in North 4 mph 10 mph 89 % 0 in
06:37 30.6 °F 27.7 °F 30.1 in NNW 4 mph 10 mph 89 % 0 in
06:42 30.4 °F 27.3 °F 30.1 in NNW 2 mph 10 mph 88 % 0 in
06:47 30.2 °F 26.8 °F 30.1 in NE 4 mph 10 mph 87 % 0 in
06:52 30.2 °F 27.1 °F 30.1 in NW 3 mph 9 mph 88 % 0 in
07:02 30 °F 26.6 °F 30.1 in North 4 mph 9 mph 87 % 0 in
07:07 29.8 °F 26.4 °F 30.1 in NNE 9 mph 9 mph 87 % 0 in
07:12 29.8 °F 26.4 °F 30.1 in NNW 4 mph 9 mph 87 % 0 in
07:17 29.8 °F 26.4 °F 30.1 in NNW 2 mph 10 mph 87 % 0 in
07:22 29.8 °F 26.4 °F 30.1 in North 5 mph 10 mph 87 % 0 in
07:27 29.8 °F 26.4 °F 30.1 in NW 4 mph 10 mph 87 % 0 in
07:32 29.7 °F 26.2 °F 30.1 in North 7 mph 10 mph 87 % 0 in
07:37 29.7 °F 26.2 °F 30.1 in NNE 4 mph 10 mph 87 % 0 in
07:42 29.7 °F 26.6 °F 30.1 in NNW 4 mph 10 mph 88 % 0 in
07:47 29.5 °F 26.4 °F 30.1 in North 3 mph 11 mph 88 % 0 in
07:52 29.5 °F 26.4 °F 30.1 in NW 4 mph 11 mph 88 % 0 in
07:57 29.5 °F 26.4 °F 30.1 in North 4 mph 11 mph 88 % 0 in
08:02 29.3 °F 26.2 °F 30.1 in NNW 4 mph 10 mph 88 % 0 in
08:07 29.3 °F 26.2 °F 30.1 in NNE 10 mph 10 mph 88 % 0 in
08:12 29.3 °F 26.2 °F 30.1 in NNE 5 mph 9 mph 88 % 0 in
08:17 29.1 °F 26.1 °F 30.1 in Calm   11 mph 88 % 0 in
08:22 29.3 °F 26.2 °F 30.1 in North 1 mph 11 mph 88 % 0 in
08:32 29.3 °F 26.2 °F 30.1 in NNW 1 mph 8 mph 88 % 0 in
08:37 29.1 °F 26.1 °F 30.1 in North 2 mph 7 mph 88 % 0 in
08:42 29.1 °F 26.1 °F 30.1 in ENE 1 mph 7 mph 88 % 0 in
08:47 29.1 °F 26.1 °F 30.1 in NNW 5 mph 8 mph 88 % 0 in
08:52 29.1 °F 26.1 °F 30.1 in NNE 9 mph 9 mph 88 % 0 in
08:57 29.1 °F 26.1 °F 30.1 in NE 4 mph 10 mph 88 % 0 in
09:02 29.1 °F 26.2 °F 30.1 in NNE 6 mph 12 mph 89 % 0 in
09:07 29.1 °F 26.2 °F 30.1 in North 11 mph 12 mph 89 % 0 in
09:12 28.9 °F 26.1 °F 30.1 in NNW 5 mph 11 mph 89 % 0 in
09:17 28.9 °F 26.1 °F 30.1 in NNE 2 mph 13 mph 89 % 0 in
09:22 28.9 °F 26.1 °F 30.1 in ENE 2 mph 13 mph 89 % 0 in
09:27 28.9 °F 26.4 °F 30.1 in NNE 6 mph 11 mph 90 % 0 in
09:32 28.9 °F 26.4 °F 30.1 in NW 1 mph 9 mph 90 % 0 in
09:42 28.8 °F 26.2 °F 30.1 in North 4 mph 9 mph 90 % 0 in
09:47 28.8 °F 26.2 °F 30.1 in NNE 7 mph 9 mph 90 % 0 in
09:52 28.9 °F 26.4 °F 30.1 in NE 2 mph 11 mph 90 % 0 in
09:57 28.9 °F 26.4 °F 30.1 in NNE 2 mph 11 mph 90 % 0 in
10:02 28.9 °F 26.4 °F 30.1 in NNW 4 mph 11 mph 90 % 0 in
10:07 29.1 °F 26.2 °F 30.1 in NE 10 mph 10 mph 89 % 0 in
10:12 29.1 °F 26.2 °F 30.1 in North 5 mph 9 mph 89 % 0 in
10:17 29.1 °F 26.2 °F 30.1 in North 2 mph 10 mph 89 % 0 in
10:22 29.3 °F 26.2 °F 30.1 in NW 1 mph 10 mph 88 % 0 in
10:27 29.5 °F 26.6 °F 30.1 in NW 1 mph 9 mph 89 % 0 in
10:32 29.5 °F 26.4 °F 30.1 in NW 1 mph 5 mph 88 % 0 in
10:42 29.7 °F 26.2 °F 30.1 in North 1 mph 5 mph 87 % 0 in
10:47 29.8 °F 26.4 °F 30.1 in North 1 mph 5 mph 87 % 0 in
10:52 30 °F 26.4 °F 30.1 in North 1 mph 5 mph 86 % 0 in
10:57 30 °F 26.6 °F 30.1 in Calm   3 mph 87 % 0 in
11:02 30.2 °F 26.8 °F 30.1 in WNW 1 mph 3 mph 87 % 0 in
11:12 30.4 °F 26.8 °F 30.1 in Calm   4 mph 86 % 0 in
11:17 30.4 °F 26.4 °F 30.1 in NNW 3 mph 5 mph 85 % 0 in
11:22 30.4 °F 26.4 °F 30.1 in NNW 3 mph 6 mph 85 % 0 in
11:27 30.7 °F 27.1 °F 30.1 in NNW 2 mph 6 mph 86 % 0 in
11:32 30.7 °F 26.8 °F 30.1 in NNW 4 mph 6 mph 85 % 0 in
11:37 30.9 °F 27.1 °F 30.1 in NNW 1 mph 6 mph 86 % 0 in
11:42 31.1 °F 27.1 °F 30.1 in WNW 2 mph 6 mph 85 % 0 in
11:47 30.9 °F 26.6 °F 30.1 in NW 1 mph 6 mph 84 % 0 in
11:52 30.9 °F 27 °F 30.1 in North 3 mph 5 mph 85 % 0 in
11:57 31.1 °F 26.8 °F 30.1 in North 1 mph 5 mph 84 % 0 in
12:02 31.5 °F 27.1 °F 30.1 in NNW 4 mph 5 mph 84 % 0 in
12:12 31.5 °F 27 °F 30.1 in NE 2 mph 6 mph 83 % 0 in
12:17 31.6 °F 27.3 °F 30.1 in WNW 3 mph 6 mph 84 % 0 in
12:22 31.6 °F 27.3 °F 30.1 in NNW 1 mph 7 mph 84 % 0 in
12:27 31.6 °F 27.3 °F 30.1 in NE 2 mph 7 mph 84 % 0 in
12:32 31.6 °F 27.1 °F 30.1 in West 1 mph 4 mph 83 % 0 in
12:37 31.6 °F 27.1 °F 30.1 in Calm   3 mph 83 % 0 in
12:42 31.8 °F 27 °F 30.1 in Calm   3 mph 82 % 0 in
12:52 32.4 °F 27.9 °F 30.1 in ENE 2 mph 2 mph 83 % 0 in
12:57 32.5 °F 27.3 °F 30.1 in East 1 mph 3 mph 81 % 0 in
13:02 32.7 °F 27.9 °F 30.1 in Calm   3 mph 82 % 0 in
13:12 33.3 °F 27.7 °F 30.1 in Calm   3 mph 80 % 0 in
13:17 33.1 °F 27.9 °F 30.1 in Calm   3 mph 81 % 0 in
13:22 33.3 °F 28 °F 30.1 in Calm   3 mph 81 % 0 in
13:27 33.1 °F 27.5 °F 30.1 in ENE 1 mph 3 mph 80 % 0 in
13:37 33.4 °F 27.9 °F 30.1 in Calm   2 mph 80 % 0 in
13:42 33.6 °F 28.8 °F 30.1 in ESE 1 mph 2 mph 82 % 0 in
13:47 34 °F 28.4 °F 30.1 in Calm   1 mph 80 % 0 in
13:52 34.3 °F 28.8 °F 30.1 in Calm   1 mph 80 % 0 in
13:57 34.9 °F 29.3 °F 30.1 in Calm   1 mph 80 % 0 in
14:02 35.1 °F 29.5 °F 30.1 in NNE 2 mph 2 mph 80 % 0 in
14:12 35.2 °F 29.3 °F 30.1 in ENE 2 mph 4 mph 79 % 0 in
14:22 35.1 °F 28.9 °F 30.1 in Calm   2 mph 78 % 0 in
14:27 35.1 °F 29.1 °F 30.1 in Calm   2 mph 79 % 0 in
14:32 35.1 °F 28.9 °F 30.1 in Calm   2 mph 78 % 0 in
14:42 35.4 °F 29.3 °F 30.1 in Calm   3 mph 78 % 0 in
14:52 35.6 °F 29.5 °F 30.1 in Calm   3 mph 78 % 0 in
14:57 36 °F 29.5 °F 30.1 in Calm   2 mph 77 % 0 in
15:02 36.1 °F 29.7 °F 30.1 in Calm   2 mph 77 % 0 in
15:07 36 °F 29.5 °F 30.1 in SW 2 mph 3 mph 77 % 0 in
15:12 36.1 °F 29.7 °F 30.1 in Calm   3 mph 77 % 0 in
15:17 36.1 °F 29.3 °F 30.1 in Calm   3 mph 76 % 0 in
15:22 36.1 °F 29.7 °F 30.1 in Calm   2 mph 77 % 0 in
15:27 36.1 °F 29.7 °F 30.1 in Calm   2 mph 77 % 0 in
15:32 36.5 °F 30 °F 30.1 in South 1 mph 3 mph 77 % 0 in
15:37 36.9 °F 30 °F 30.1 in Calm   3 mph 76 % 0 in
15:42 36.9 °F 30.4 °F 30.1 in SSE 2 mph 3 mph 77 % 0 in
15:47 37 °F 29.8 °F 30.1 in Calm   3 mph 75 % 0 in
15:57 37 °F 29.8 °F 30.1 in Calm   3 mph 75 % 0 in
16:02 37 °F 30.2 °F 30.1 in Calm   3 mph 76 % 0 in
16:07 37 °F 29.8 °F 30.1 in Calm   3 mph 75 % 0 in
16:12 36.7 °F 29.5 °F 30.1 in Calm   1 mph 75 % 0 in
16:17 36.9 °F 30 °F 30.1 in Calm   1 mph 76 % 0 in
16:22 37 °F 29.8 °F 30.1 in WSW 1 mph 1 mph 75 % 0 in
16:32 36.7 °F 29.8 °F 30.1 in Calm   3 mph 76 % 0 in
16:37 36.7 °F 29.5 °F 30.1 in North 1 mph 3 mph 75 % 0 in
16:42 36.7 °F 29.5 °F 30.1 in Calm   2 mph 75 % 0 in
16:47 36.5 °F 29.3 °F 30.1 in NE 1 mph 2 mph 75 % 0 in
16:52 36.3 °F 29.1 °F 30.1 in Calm   2 mph 75 % 0 in
16:57 36.3 °F 29.1 °F 30.1 in Calm   2 mph 75 % 0 in
17:02 36.3 °F 29.5 °F 30.1 in North 2 mph 2 mph 76 % 0 in
17:07 36.3 °F 28.8 °F 30.1 in NNE 2 mph 3 mph 74 % 0 in
17:12 36.3 °F 28.8 °F 30.1 in ENE 3 mph 6 mph 74 % 0 in
17:17 36.3 °F 29.1 °F 30.1 in NNE 2 mph 6 mph 75 % 0 in
17:22 36.1 °F 28.9 °F 30.1 in NNW 2 mph 6 mph 75 % 0 in
17:27 36 °F 29.1 °F 30.1 in NNW 1 mph 5 mph 76 % 0 in
17:32 35.6 °F 28.8 °F 30.1 in Calm   5 mph 76 % 0 in
17:42 35.1 °F 28.2 °F 30.1 in NNW 2 mph 3 mph 76 % 0 in
17:47 34.9 °F 28.8 °F 30.1 in NNE 2 mph 5 mph 78 % 0 in
17:57 34.3 °F 29.1 °F 30.1 in North 1 mph 5 mph 81 % 0 in
18:07 34 °F 28.8 °F 30.1 in NE 2 mph 8 mph 81 % 0 in
18:12 33.4 °F 28.6 °F 30.1 in NNE 5 mph 8 mph 82 % 0 in
18:17 33.1 °F 28.8 °F 30.1 in North 3 mph 8 mph 84 % 0 in
18:22 32.7 °F 28.8 °F 30.1 in NNE 1 mph 10 mph 85 % 0 in
18:32 32.4 °F 28 °F 30.1 in NNW 3 mph 9 mph 84 % 0 in
18:37 32.2 °F 28.2 °F 30.1 in North 3 mph 6 mph 85 % 0 in
18:42 31.8 °F 27.9 °F 30.1 in NNW 3 mph 5 mph 85 % 0 in
18:47 31.8 °F 27.9 °F 30.1 in WNW 1 mph 6 mph 85 % 0 in
18:52 31.6 °F 27.7 °F 30.1 in NE 1 mph 6 mph 85 % 0 in
19:02 31.5 °F 27.1 °F 30.1 in NNW 1 mph 6 mph 84 % 0 in
19:12 31.3 °F 27.3 °F 30.1 in Calm   6 mph 85 % 0 in
19:17 30.9 °F 27 °F 30.1 in NE 3 mph 4 mph 85 % 0 in
19:22 30.9 °F 27.1 °F 30.1 in NNE 3 mph 5 mph 86 % 0 in
19:27 30.9 °F 27.1 °F 30.1 in NNE 3 mph 5 mph 86 % 0 in
19:32 30.9 °F 27.1 °F 30.1 in Calm   5 mph 86 % 0 in
19:37 30.9 °F 27.1 °F 30.1 in Calm   5 mph 86 % 0 in
19:42 30.9 °F 27.1 °F 30.1 in Calm   5 mph 86 % 0 in
19:47 30.9 °F 27.1 °F 30.1 in Calm   2 mph 86 % 0 in
19:52 30.9 °F 27.1 °F 30.1 in Calm   1 mph 86 % 0 in
19:57 31.1 °F 27.3 °F 30.1 in NE 2 mph 2 mph 86 % 0 in
20:02 31.3 °F 27.3 °F 30.1 in NNW 2 mph 3 mph 85 % 0 in
20:12 31.5 °F 27.5 °F 30.1 in Calm   4 mph 85 % 0 in
20:17 31.6 °F 27.3 °F 30.1 in NNW 1 mph 4 mph 84 % 0 in
20:22 31.5 °F 27.1 °F 30.1 in North 2 mph 4 mph 84 % 0 in
20:27 31.5 °F 27.5 °F 30.1 in NNW 1 mph 4 mph 85 % 0 in
20:32 31.6 °F 27.3 °F 30.1 in Calm   4 mph 84 % 0 in
20:37 31.6 °F 27.7 °F 30.1 in NE 1 mph 4 mph 85 % 0 in
20:42 31.6 °F 27.7 °F 30.1 in North 1 mph 4 mph 85 % 0 in
20:52 31.6 °F 27.7 °F 30.1 in Calm   3 mph 85 % 0 in
20:57 31.6 °F 27.7 °F 30.1 in Calm   3 mph 85 % 0 in
21:02 31.6 °F 27.7 °F 30.1 in NNE 1 mph 3 mph 85 % 0 in
21:12 31.8 °F 28 °F 30.1 in Calm   2 mph 86 % 0 in
21:17 31.8 °F 27.9 °F 30.1 in NNE 2 mph 2 mph 85 % 0 in
21:22 32 °F 27.7 °F 30.1 in Calm   3 mph 84 % 0 in
21:32 32.2 °F 27.9 °F 30.1 in NE 2 mph 5 mph 84 % 0 in
21:42 32.4 °F 27.9 °F 30.1 in NNE 4 mph 7 mph 83 % 0 in
21:47 32.4 °F 27.5 °F 30.1 in NE 3 mph 7 mph 82 % 0 in
21:52 32.4 °F 27.9 °F 30.1 in Calm   7 mph 83 % 0 in
21:57 32.4 °F 27.9 °F 30.1 in NNE 3 mph 7 mph 83 % 0 in
22:02 32.4 °F 27.9 °F 30.1 in NNE 3 mph 7 mph 83 % 0 in
22:07 32.2 °F 27.9 °F 30.1 in NNE 1 mph 7 mph 84 % 0 in
22:12 32.2 °F 27.7 °F 30.1 in NNE 3 mph 6 mph 83 % 0 in
22:17 32.2 °F 27.7 °F 30.1 in NNE 4 mph 7 mph 83 % 0 in
22:22 32.2 °F 27.9 °F 30.1 in Calm   7 mph 84 % 0 in
22:27 32.2 °F 27.9 °F 30.1 in NNE 2 mph 7 mph 84 % 0 in
22:32 32.2 °F 27.9 °F 30.1 in NNE 3 mph 7 mph 84 % 0 in
22:37 32.2 °F 27.9 °F 30.1 in NE 5 mph 6 mph 84 % 0 in
22:42 32.2 °F 27.9 °F 30.1 in NNE 5 mph 6 mph 84 % 0 in
22:52 32.2 °F 27.9 °F 30.1 in NE 2 mph 9 mph 84 % 0 in
22:57 32.2 °F 28.2 °F 30.1 in NE 5 mph 9 mph 85 % 0 in
23:02 32.2 °F 27.9 °F 30.1 in NE 4 mph 8 mph 84 % 0 in
23:07 32.2 °F 27.9 °F 30.1 in NE 4 mph 8 mph 84 % 0 in
23:12 32.2 °F 28.2 °F 30.1 in ENE 4 mph 8 mph 85 % 0 in
23:17 32.2 °F 27.9 °F 30.1 in NNE 5 mph 8 mph 84 % 0 in
23:22 32.2 °F 27.9 °F 30.1 in NE 4 mph 7 mph 84 % 0 in
23:27 32.4 °F 28 °F 30.1 in NE 5 mph 7 mph 84 % 0 in
23:32 32.4 °F 28 °F 30.1 in NE 6 mph 7 mph 84 % 0 in
23:37 32.2 °F 28.2 °F 30.1 in NNE 3 mph 6 mph 85 % 0 in
23:42 32.4 °F 28 °F 30.1 in NNW 3 mph 6 mph 84 % 0 in
23:47 32.4 °F 28 °F 30.1 in NNE 5 mph 8 mph 84 % 0 in
23:52 32.2 °F 27.9 °F 30.1 in NE 4 mph 9 mph 84 % 0 in
23:57 32.2 °F 28.2 °F 30.1 in North 3 mph 9 mph 85 % 0 in
Meteo18
Compliments of Weather Underground - 4 mb

Script developed by  Jim McMurry - jmcmurry@mwt.net Adapted for the template by  Wim van der Kuil - Leuven-Template.eu

You find our weather info also at:

European Weather Network

Weather Underground

Equipment we use:

Weather-station
Davis Vue

Weather-program
Meteohub

Weather-server
Raspberry PI 2 B+

Provider
1 and 1

Davis Vue

Meteohub

Raspberry PI 2 B+

1 and 1